createdAt,value
2023-02-17T00:04:52.290Z,64.42
2023-02-17T00:15:16.461Z,65.00
2023-02-17T00:25:41.230Z,65.47
2023-02-17T00:36:10.846Z,65.92
2023-02-17T00:46:35.070Z,66.22
2023-02-17T00:56:59.456Z,66.40
2023-02-17T01:07:23.674Z,66.41
2023-02-17T01:17:47.892Z,66.47
2023-02-17T01:28:16.288Z,66.84
2023-02-17T01:38:40.893Z,66.76
2023-02-17T01:49:15.144Z,66.57
2023-02-17T01:59:40.316Z,66.55
2023-02-17T02:10:07.517Z,66.41
2023-02-17T02:21:08.592Z,66.29
2023-02-17T02:31:51.790Z,66.02
2023-02-17T02:42:19.339Z,66.15
2023-02-17T02:52:54.875Z,65.90
2023-02-17T03:03:25.756Z,65.85
2023-02-17T03:13:49.969Z,66.07
2023-02-17T03:24:14.350Z,66.24
2023-02-17T03:34:39.415Z,66.41
2023-02-17T03:45:05.248Z,66.20
2023-02-17T03:55:29.488Z,66.31
2023-02-17T04:05:54.126Z,66.20
2023-02-17T04:16:18.494Z,65.82
2023-02-17T04:26:42.683Z,65.78
2023-02-17T04:37:07.047Z,65.76
2023-02-17T04:47:31.235Z,66.06
2023-02-17T04:57:56.161Z,66.33
2023-02-17T05:08:21.716Z,66.49
2023-02-17T05:18:46.575Z,66.70
2023-02-17T05:29:11.526Z,66.84
2023-02-17T05:39:36.428Z,67.36
2023-02-17T05:50:01.260Z,67.63
2023-02-17T06:00:26.593Z,67.97
2023-02-17T06:10:52.280Z,67.93
2023-02-17T06:21:16.474Z,67.67
2023-02-17T06:31:41.436Z,67.12
2023-02-17T06:42:06.352Z,66.60
2023-02-17T06:52:31.383Z,66.56
2023-02-17T07:02:56.324Z,66.74
2023-02-17T07:13:21.143Z,66.95
2023-02-17T07:23:45.959Z,66.98
2023-02-17T07:34:10.868Z,67.02
2023-02-17T07:44:35.987Z,66.93
2023-02-17T07:55:01.281Z,67.01
2023-02-17T08:05:25.514Z,66.63
2023-02-17T08:15:50.507Z,66.50
2023-02-17T08:26:15.350Z,66.55
2023-02-17T08:36:40.949Z,66.63
2023-02-17T08:47:06.474Z,66.85
2023-02-17T08:57:30.727Z,67.16
2023-02-17T09:07:54.915Z,67.42
2023-02-17T09:18:19.946Z,67.43
2023-02-17T09:28:44.880Z,67.54
2023-02-17T09:39:11.566Z,67.77
2023-02-17T09:49:41.168Z,67.90
2023-02-17T10:00:12.643Z,68.36
2023-02-17T10:10:43.436Z,69.22
2023-02-17T10:21:13.224Z,69.51
2023-02-17T10:31:45.120Z,69.72
2023-02-17T10:42:17.379Z,69.32
2023-02-17T10:52:42.486Z,68.91
2023-02-17T11:03:06.784Z,68.82
2023-02-17T11:13:37.457Z,68.81
2023-02-17T11:24:05.023Z,68.64
2023-02-17T11:34:32.375Z,68.82
2023-02-17T11:44:59.295Z,68.87
2023-02-17T11:55:31.196Z,68.83
2023-02-17T12:06:08.620Z,68.93
2023-02-17T12:16:45.455Z,68.84
2023-02-17T12:27:24.103Z,68.75
2023-02-17T12:37:53.506Z,69.10
2023-02-17T12:48:26.337Z,68.83
2023-02-17T12:58:52.543Z,68.73
2023-02-17T13:09:26.288Z,68.63
2023-02-17T13:20:03.893Z,68.74
2023-02-17T13:30:38.524Z,68.83
2023-02-17T13:41:06.446Z,69.10
2023-02-17T13:51:32.956Z,69.30
2023-02-17T14:01:57.306Z,69.40
2023-02-17T14:12:23.634Z,69.14
2023-02-17T14:23:03.936Z,69.26
2023-02-17T14:33:28.987Z,69.26
2023-02-17T14:43:53.177Z,69.95
2023-02-17T14:54:18.751Z,70.52
2023-02-17T15:04:43.394Z,70.97
2023-02-17T15:15:14.089Z,71.13
2023-02-17T15:25:38.318Z,71.31
2023-02-17T15:36:02.575Z,71.36
2023-02-17T15:46:30.793Z,71.15
2023-02-17T15:56:55.036Z,71.15
2023-02-17T16:07:19.327Z,71.20
2023-02-17T16:17:43.735Z,71.43
2023-02-17T16:28:15.112Z,71.76
2023-02-17T16:38:39.293Z,71.95
2023-02-17T16:49:19.168Z,72.46
2023-02-17T16:59:43.559Z,72.54
2023-02-17T17:10:16.736Z,72.68
2023-02-17T17:20:41.872Z,72.72
2023-02-17T17:31:06.212Z,72.63
2023-02-17T17:41:34.448Z,72.41
2023-02-17T17:51:58.630Z,72.26
2023-02-17T18:02:22.841Z,72.08
2023-02-17T18:12:48.240Z,72.26
2023-02-17T18:23:12.745Z,72.54
2023-02-17T18:33:38.159Z,72.76
2023-02-17T18:44:05.465Z,72.94
2023-02-17T18:54:29.799Z,73.02
2023-02-17T19:05:02.452Z,72.89
2023-02-17T19:15:26.703Z,72.63
2023-02-17T19:25:51.020Z,72.32
2023-02-17T19:36:17.144Z,72.01
2023-02-17T19:46:41.694Z,71.81
2023-02-17T19:57:06.082Z,71.69
2023-02-17T20:07:31.148Z,71.76
2023-02-17T20:17:55.302Z,72.00
2023-02-17T20:28:20.487Z,72.20
2023-02-17T20:38:45.653Z,72.39
2023-02-17T20:49:10.634Z,72.30
2023-02-17T20:59:35.488Z,72.26
2023-02-17T21:10:00.321Z,72.32
2023-02-17T21:20:25.214Z,72.24
2023-02-17T21:30:50.232Z,72.39
2023-02-17T21:41:17.937Z,72.49
2023-02-17T21:51:42.235Z,72.51
2023-02-17T22:02:06.498Z,72.41
2023-02-17T22:12:30.751Z,72.29
2023-02-17T22:22:55.315Z,72.13
2023-02-17T22:33:19.570Z,71.71
2023-02-17T22:43:44.807Z,71.67
2023-02-17T22:54:09.610Z,71.51
2023-02-17T23:04:33.982Z,71.34
2023-02-17T23:14:58.204Z,71.43
2023-02-17T23:25:22.426Z,71.43
2023-02-17T23:35:48.166Z,71.49
2023-02-17T23:46:12.584Z,71.48
2023-02-17T23:56:37.655Z,71.82
